Time;durP1;ratioP1;P1;durP2;ratioP2;P2;SDS_P1;SDS_P2;PMS_P1;PMS_P2;Temp;Humidity;BMP_temperature;BMP_pressure;BME280_temperature;BME280_humidity;BME280_pressure;Samples;Min_cycle;Max_cycle;Signal;HPM_P1;HPM_P2
2024/03/22 00:00:57;;;;;;;21.75;11.57;;;;;;;-145.63;100.00;61273.97;5124132;27;20138;-65
2024/03/22 00:03:22;;;;;;;21.05;10.50;;;;;;;-145.63;100.00;61273.97;5118166;27;20028;-65
2024/03/22 00:05:48;;;;;;;19.70;10.02;;;;;;;-145.63;100.00;61273.97;5136396;27;20502;-63
2024/03/22 00:08:13;;;;;;;21.85;10.60;;;;;;;-145.63;100.00;61273.97;5117804;27;20031;-63
2024/03/22 00:10:39;;;;;;;19.80;10.05;;;;;;;-145.63;100.00;61273.97;5128897;27;20537;-63
2024/03/22 00:13:04;;;;;;;20.48;10.70;;;;;;;-145.63;100.00;61273.97;5127683;27;20031;-63
2024/03/22 00:15:30;;;;;;;15.55;9.52;;;;;;;-145.63;100.00;61273.97;5118919;27;20031;-64
2024/03/22 00:17:56;;;;;;;22.27;10.52;;;;;;;-145.63;100.00;61273.97;5136193;27;20062;-63
2024/03/22 00:20:21;;;;;;;24.67;10.35;;;;;;;-145.63;100.00;61273.97;5116746;27;20103;-63
2024/03/22 00:22:47;;;;;;;23.45;10.00;;;;;;;-145.63;100.00;61273.97;5125097;27;20453;-63
2024/03/22 00:25:12;;;;;;;13.52;9.68;;;;;;;-145.63;100.00;61273.97;5114855;28;20039;-64
2024/03/22 00:27:38;;;;;;;24.90;10.75;;;;;;;-145.63;100.00;61273.97;5120007;27;20078;-63
2024/03/22 00:30:04;;;;;;;21.55;10.77;;;;;;;-145.63;100.00;61273.97;5136051;27;20452;-62
2024/03/22 00:32:31;;;;;;;21.60;10.80;;;;;;;-145.63;100.00;61273.97;5132034;27;20020;-65
2024/03/22 00:34:57;;;;;;;20.55;9.95;;;;;;;-145.63;100.00;61273.97;5120328;27;20073;-63
2024/03/22 00:37:22;;;;;;;25.92;10.60;;;;;;;-145.63;100.00;61273.97;5126214;27;20031;-65
2024/03/22 00:39:48;;;;;;;16.83;9.93;;;;;;;-145.63;100.00;61273.97;5102281;28;20035;-64
2024/03/22 00:42:14;;;;;;;16.08;10.25;;;;;;;-145.63;100.00;61273.97;5115858;27;20054;-64
2024/03/22 00:44:39;;;;;;;21.15;10.30;;;;;;;-145.63;100.00;61273.97;5135491;27;20020;-64
2024/03/22 00:47:05;;;;;;;19.58;10.63;;;;;;;-145.63;100.00;61273.97;5135213;27;20364;-64
2024/03/22 00:49:31;;;;;;;21.83;10.70;;;;;;;-145.63;100.00;61273.97;5123690;27;20036;-65
2024/03/22 00:51:57;;;;;;;18.70;10.02;;;;;;;-145.63;100.00;61273.97;5121695;27;20027;-64
2024/03/22 00:54:23;;;;;;;26.02;11.68;;;;;;;-145.63;100.00;61273.97;5135088;27;20034;-64
2024/03/22 00:56:48;;;;;;;18.13;10.07;;;;;;;-145.63;100.00;61273.97;5135190;27;20034;-63
2024/03/22 00:59:14;;;;;;;19.92;10.85;;;;;;;-145.63;100.00;61273.97;5117086;27;20031;-64
2024/03/22 01:01:40;;;;;;;17.17;9.88;;;;;;;-145.63;100.00;61273.97;5133178;27;20029;-63
2024/03/22 01:04:05;;;;;;;19.67;9.88;;;;;;;-145.63;100.00;61273.97;5127093;27;20032;-63
2024/03/22 01:06:31;;;;;;;19.90;10.48;;;;;;;-145.63;100.00;61273.97;5117263;28;20038;-64
2024/03/22 01:08:56;;;;;;;17.90;10.48;;;;;;;-145.63;100.00;61273.97;5135030;27;20062;-64
2024/03/22 01:11:22;;;;;;;16.23;10.07;;;;;;;-145.63;100.00;61273.97;5115849;27;20028;-63
2024/03/22 01:13:48;;;;;;;21.30;10.77;;;;;;;-145.63;100.00;61273.97;5114382;28;20019;-63
2024/03/22 01:16:13;;;;;;;24.60;11.07;;;;;;;-145.63;100.00;61273.97;5123488;27;20056;-63
2024/03/22 01:18:39;;;;;;;18.92;10.90;;;;;;;-145.63;100.00;61273.97;5111694;28;20032;-62
2024/03/22 01:21:05;;;;;;;19.23;10.40;;;;;;;-145.63;100.00;61273.97;5114172;28;20060;-63
2024/03/22 01:23:31;;;;;;;15.57;9.98;;;;;;;-145.63;100.00;61273.97;5113887;28;20057;-63
2024/03/22 01:25:57;;;;;;;21.83;10.90;;;;;;;-145.63;100.00;61273.97;5128537;27;20502;-62
2024/03/22 01:28:23;;;;;;;18.52;10.20;;;;;;;-145.63;100.00;61273.97;5124306;27;20055;-62
2024/03/22 01:30:48;;;;;;;20.17;10.50;;;;;;;-145.63;100.00;61273.97;5119247;27;20463;-64
2024/03/22 01:33:14;;;;;;;15.45;9.82;;;;;;;-145.63;100.00;61273.97;5115377;27;20069;-64
2024/03/22 01:35:39;;;;;;;19.55;10.43;;;;;;;-145.63;100.00;61273.97;5115601;27;20049;-64
2024/03/22 01:38:05;;;;;;;21.35;10.35;;;;;;;-145.63;100.00;61273.97;5133929;27;20028;-64
2024/03/22 01:40:31;;;;;;;21.40;10.35;;;;;;;-145.63;100.00;61273.97;5128047;27;20030;-63
2024/03/22 01:42:57;;;;;;;21.65;10.60;;;;;;;-145.63;100.00;61273.97;5127943;27;20059;-64
2024/03/22 01:45:24;;;;;;;21.20;10.80;;;;;;;-145.63;100.00;61273.97;5118130;27;20023;-66
2024/03/22 01:47:54;;;;;;;20.10;10.55;;;;;;;-145.63;100.00;61273.97;5114474;27;20035;-65
2024/03/22 01:50:23;;;;;;;17.35;10.85;;;;;;;-145.63;100.00;61273.97;5128497;27;20020;-66
2024/03/22 01:52:49;;;;;;;19.60;10.68;;;;;;;-145.63;100.00;61273.97;5127289;27;20238;-65
2024/03/22 01:55:15;;;;;;;18.98;10.48;;;;;;;-145.63;100.00;61273.97;5125043;27;20027;-67
2024/03/22 01:57:42;;;;;;;17.80;9.90;;;;;;;-145.63;100.00;61273.97;5117711;27;20034;-64
2024/03/22 02:00:11;;;;;;;24.38;10.60;;;;;;;-145.63;100.00;61273.97;5133895;27;20080;-64
2024/03/22 02:02:36;;;;;;;22.35;11.23;;;;;;;-145.63;100.00;61273.97;5133951;27;20054;-66
2024/03/22 02:05:16;;;;;;;18.15;10.23;;;;;;;-145.63;100.00;61273.97;5133797;27;20029;-66
2024/03/22 02:07:42;;;;;;;23.27;10.98;;;;;;;-145.63;100.00;61273.97;5121441;27;20023;-64
2024/03/22 02:10:10;;;;;;;21.55;11.25;;;;;;;-145.63;100.00;61273.97;5102546;28;20118;-64
2024/03/22 02:12:40;;;;;;;20.83;13.20;;;;;;;-145.63;100.00;61273.97;5130277;27;20061;-64
2024/03/22 02:15:08;;;;;;;22.55;12.48;;;;;;;-145.63;100.00;61273.97;5119212;27;20023;-64
2024/03/22 02:17:35;;;;;;;19.50;11.38;;;;;;;-145.63;100.00;61273.97;5113857;27;20502;-64
2024/03/22 02:20:02;;;;;;;22.88;12.30;;;;;;;-145.63;100.00;61273.97;5112124;28;20028;-65
2024/03/22 02:22:29;;;;;;;20.50;11.25;;;;;;;-145.63;100.00;61273.97;5123660;27;20051;-63
2024/03/22 02:24:54;;;;;;;23.10;10.80;;;;;;;-145.63;100.00;61273.97;5127973;27;20510;-64
2024/03/22 02:27:20;;;;;;;19.25;10.82;;;;;;;-145.63;100.00;61273.97;5113684;27;20122;-63
2024/03/22 02:29:45;;;;;;;21.50;10.27;;;;;;;-145.63;100.00;61273.97;5133684;27;20034;-64
2024/03/22 02:32:12;;;;;;;19.67;10.43;;;;;;;-145.63;100.00;61273.97;5116854;27;20031;-64
2024/03/22 02:34:37;;;;;;;19.70;11.30;;;;;;;-145.63;100.00;61273.97;5124161;27;20358;-64
2024/03/22 02:37:03;;;;;;;18.65;9.98;;;;;;;-145.63;100.00;61273.97;5125470;27;20125;-63
2024/03/22 02:39:29;;;;;;;21.48;11.07;;;;;;;-145.63;100.00;61273.97;5131207;27;20142;-63
2024/03/22 02:41:55;;;;;;;20.75;10.45;;;;;;;-145.63;100.00;61273.97;5133645;27;20444;-63
2024/03/22 02:44:21;;;;;;;19.98;10.98;;;;;;;-145.63;100.00;61273.97;5115677;27;20155;-63
2024/03/22 02:46:47;;;;;;;16.17;10.82;;;;;;;-145.63;100.00;61273.97;5112460;28;20035;-63
2024/03/22 02:49:13;;;;;;;23.65;10.88;;;;;;;-145.63;100.00;61273.97;5120569;27;20085;-64
2024/03/22 02:51:39;;;;;;;17.77;10.00;;;;;;;-145.63;100.00;61273.97;5119635;27;20436;-63
2024/03/22 02:54:05;;;;;;;19.63;10.52;;;;;;;-145.63;100.00;61273.97;5133142;27;20107;-63
2024/03/22 02:56:31;;;;;;;15.98;10.63;;;;;;;-145.63;100.00;61273.97;5113779;28;20024;-64
2024/03/22 02:58:57;;;;;;;20.20;11.50;;;;;;;-145.63;100.00;61273.97;5126885;28;20019;-62
2024/03/22 03:01:22;;;;;;;17.48;11.07;;;;;;;-145.63;100.00;61273.97;5116831;28;20131;-62
2024/03/22 03:03:48;;;;;;;18.23;10.82;;;;;;;-145.63;100.00;61273.97;5117101;28;20110;-64
2024/03/22 03:06:14;;;;;;;19.17;10.55;;;;;;;-145.63;100.00;61273.97;5132824;28;20020;-64
2024/03/22 03:08:40;;;;;;;19.85;11.23;;;;;;;-145.63;100.00;61273.97;5112652;28;20034;-64
2024/03/22 03:11:06;;;;;;;20.27;12.20;;;;;;;-145.63;100.00;61273.97;5127682;28;20031;-65
2024/03/22 03:13:32;;;;;;;17.65;11.68;;;;;;;-145.63;100.00;61273.97;5122522;28;20383;-64
2024/03/22 03:15:58;;;;;;;25.15;11.02;;;;;;;-145.63;100.00;61273.97;5122182;27;20463;-64
2024/03/22 03:18:23;;;;;;;19.70;12.02;;;;;;;-145.63;100.00;61273.97;5131944;28;20379;-64
2024/03/22 03:20:49;;;;;;;19.25;12.00;;;;;;;-145.63;100.00;61273.97;5114127;28;20116;-65
2024/03/22 03:23:15;;;;;;;18.80;11.93;;;;;;;-145.63;100.00;61273.97;5130653;28;20131;-63
2024/03/22 03:25:40;;;;;;;24.48;12.25;;;;;;;-145.63;100.00;61273.97;5114451;28;20035;-65
2024/03/22 03:28:07;;;;;;;21.73;10.98;;;;;;;-145.63;100.00;61273.97;5132800;28;20031;-65
2024/03/22 03:30:36;;;;;;;16.90;10.98;;;;;;;-145.63;100.00;61273.97;5123589;27;20085;-64
2024/03/22 03:33:01;;;;;;;19.80;11.40;;;;;;;-145.63;100.00;61273.97;5118825;27;20104;-66
2024/03/22 03:35:29;;;;;;;23.23;11.50;;;;;;;-145.63;100.00;61273.97;5136454;27;20535;-65
2024/03/22 03:37:55;;;;;;;20.10;11.52;;;;;;;-145.63;100.00;61273.97;5125635;27;20043;-65
2024/03/22 03:40:21;;;;;;;21.98;12.48;;;;;;;-145.63;100.00;61273.97;5131187;27;20054;-65
2024/03/22 03:42:47;;;;;;;22.63;12.27;;;;;;;-145.63;100.00;61273.97;5122246;27;20035;-64
2024/03/22 03:45:13;;;;;;;24.40;12.15;;;;;;;-145.63;100.00;61273.97;5123969;27;20038;-65
2024/03/22 03:47:38;;;;;;;24.13;11.43;;;;;;;-145.63;100.00;61273.97;5136135;27;20058;-65
2024/03/22 03:50:04;;;;;;;19.25;11.27;;;;;;;-145.63;100.00;61273.97;5121837;27;20020;-65
2024/03/22 03:52:30;;;;;;;20.92;13.18;;;;;;;-145.63;100.00;61273.97;5121168;27;20024;-63
2024/03/22 03:54:56;;;;;;;20.83;12.05;;;;;;;-145.63;100.00;61273.97;5117987;27;20051;-64
2024/03/22 03:57:21;;;;;;;22.25;12.45;;;;;;;-145.63;100.00;61273.97;5135663;27;20039;-63
2024/03/22 03:59:47;;;;;;;18.52;10.80;;;;;;;-145.63;100.00;61273.97;5133862;27;20066;-63
2024/03/22 04:02:13;;;;;;;28.52;12.23;;;;;;;-145.63;100.00;61273.97;5115470;28;20035;-62
2024/03/22 04:04:39;;;;;;;19.08;11.15;;;;;;;-145.63;100.00;61273.97;5108521;27;20035;-63
2024/03/22 04:07:05;;;;;;;26.42;11.23;;;;;;;-145.63;100.00;61273.97;5126950;27;20035;-63
2024/03/22 04:09:31;;;;;;;27.77;12.32;;;;;;;-145.63;100.00;61273.97;5134568;27;20039;-64
2024/03/22 04:11:58;;;;;;;23.80;11.57;;;;;;;-145.63;100.00;61273.97;5115705;28;20487;-63
2024/03/22 04:14:27;;;;;;;22.27;11.73;;;;;;;-145.63;100.00;61273.97;5133145;27;20034;-63
2024/03/22 04:16:56;;;;;;;21.13;12.05;;;;;;;-145.63;100.00;61273.97;5123093;27;20032;-63
2024/03/22 04:19:21;;;;;;;21.25;12.40;;;;;;;-145.63;100.00;61273.97;5123768;27;20040;-65
2024/03/22 04:21:49;;;;;;;17.65;11.80;;;;;;;-145.63;100.00;61273.97;5132217;27;20028;-63
2024/03/22 04:24:15;;;;;;;26.55;11.98;;;;;;;-145.63;100.00;61273.97;5115809;28;20047;-63
2024/03/22 04:26:41;;;;;;;19.40;11.90;;;;;;;-145.63;100.00;61273.97;5134611;27;20153;-62
2024/03/22 04:29:06;;;;;;;20.35;13.43;;;;;;;-145.63;100.00;61273.97;5120888;27;20075;-62
2024/03/22 04:31:32;;;;;;;18.90;11.77;;;;;;;-145.63;100.00;61273.97;5124881;27;20535;-63
2024/03/22 04:33:57;;;;;;;25.40;12.88;;;;;;;-145.63;100.00;61273.97;5130719;27;20036;-64
2024/03/22 04:36:23;;;;;;;20.45;12.07;;;;;;;-145.63;100.00;61273.97;5124155;27;20456;-64
2024/03/22 04:38:49;;;;;;;23.42;12.73;;;;;;;-145.63;100.00;61273.97;5129889;27;20373;-64
2024/03/22 04:41:14;;;;;;;24.65;13.48;;;;;;;-145.63;100.00;61273.97;5133527;27;20038;-63
2024/03/22 04:43:40;;;;;;;26.42;13.52;;;;;;;-145.63;100.00;61273.97;5131711;27;20027;-63
2024/03/22 04:46:06;;;;;;;25.92;14.35;;;;;;;-145.63;100.00;61273.97;5131742;27;20039;-63
2024/03/22 04:48:31;;;;;;;26.10;13.32;;;;;;;-145.63;100.00;61273.97;5134989;27;20050;-63
2024/03/22 04:50:57;;;;;;;25.50;14.20;;;;;;;-145.63;100.00;61273.97;5134385;27;20520;-64
2024/03/22 04:53:23;;;;;;;25.17;14.05;;;;;;;-145.63;100.00;61273.97;5134857;27;20118;-64
2024/03/22 04:55:50;;;;;;;26.85;13.48;;;;;;;-145.63;100.00;61273.97;5132219;27;20046;-63
2024/03/22 04:58:20;;;;;;;25.23;13.40;;;;;;;-145.63;100.00;61273.97;5135187;27;20031;-64
2024/03/22 05:00:47;;;;;;;24.73;14.27;;;;;;;-145.63;100.00;61273.97;5134966;27;20387;-63
2024/03/22 05:03:13;;;;;;;22.15;14.27;;;;;;;-145.63;100.00;61273.97;5134785;27;20035;-64
2024/03/22 05:05:40;;;;;;;27.27;14.48;;;;;;;-145.63;100.00;61273.97;5134946;27;20038;-65
2024/03/22 05:08:07;;;;;;;19.33;13.00;;;;;;;-145.63;100.00;61273.97;5120685;27;20468;-66
2024/03/22 05:10:33;;;;;;;26.52;14.07;;;;;;;-145.63;100.00;61273.97;5123545;27;20023;-64
2024/03/22 05:13:00;;;;;;;23.33;14.52;;;;;;;-145.63;100.00;61273.97;5130148;27;20497;-64
2024/03/22 05:15:26;;;;;;;26.67;15.18;;;;;;;-145.63;100.00;61273.97;5114122;28;20038;-64
2024/03/22 05:17:52;;;;;;;28.35;15.18;;;;;;;-145.63;100.00;61273.97;5119983;27;20027;-64
2024/03/22 05:20:19;;;;;;;24.67;15.45;;;;;;;-145.63;100.00;61273.97;5134043;27;20548;-65
2024/03/22 05:22:44;;;;;;;25.95;15.93;;;;;;;-145.63;100.00;61273.97;5123240;27;20082;-65
2024/03/22 05:25:10;;;;;;;23.58;15.32;;;;;;;-145.63;100.00;61273.97;5117894;27;20570;-66
2024/03/22 05:27:36;;;;;;;28.17;15.48;;;;;;;-145.63;100.00;61273.97;5115459;27;20038;-65
2024/03/22 05:30:04;;;;;;;25.95;16.17;;;;;;;-145.63;100.00;61273.97;5134803;27;20030;-66
2024/03/22 05:32:31;;;;;;;24.00;15.18;;;;;;;-145.63;100.00;61273.97;5132847;27;20030;-64
2024/03/22 05:34:56;;;;;;;24.13;15.93;;;;;;;-145.63;100.00;61273.97;5122109;27;20107;-63
2024/03/22 05:37:22;;;;;;;25.40;16.75;;;;;;;-145.63;100.00;61273.97;5121009;27;20027;-64
2024/03/22 05:39:48;;;;;;;32.10;16.02;;;;;;;-145.63;100.00;61273.97;5134555;27;20505;-64
2024/03/22 05:42:14;;;;;;;27.42;15.57;;;;;;;-145.63;100.00;61273.97;5134132;27;20070;-65
2024/03/22 05:44:40;;;;;;;24.40;15.32;;;;;;;-145.63;100.00;61273.97;5115712;27;20062;-64
2024/03/22 05:47:05;;;;;;;23.70;14.85;;;;;;;-145.63;100.00;61273.97;5127953;27;20489;-63
2024/03/22 05:49:31;;;;;;;25.35;15.57;;;;;;;-145.63;100.00;61273.97;5125416;27;20039;-64
2024/03/22 05:51:56;;;;;;;22.70;16.30;;;;;;;-145.63;100.00;61273.97;5117564;27;20034;-64
2024/03/22 05:54:22;;;;;;;26.02;16.75;;;;;;;-145.63;100.00;61273.97;5134093;27;20154;-64
2024/03/22 05:56:48;;;;;;;33.72;16.65;;;;;;;-145.63;100.00;61273.97;5134150;27;20154;-63
2024/03/22 05:59:13;;;;;;;31.35;16.80;;;;;;;-145.63;100.00;61273.97;5133333;27;20050;-65
2024/03/22 06:01:39;;;;;;;31.10;16.88;;;;;;;-145.63;100.00;61273.97;5115878;27;20051;-64
2024/03/22 06:04:05;;;;;;;27.52;16.63;;;;;;;-145.63;100.00;61273.97;5113434;28;20039;-65
2024/03/22 06:06:34;;;;;;;30.80;15.77;;;;;;;-145.63;100.00;61273.97;5116690;27;20034;-66
2024/03/22 06:09:03;;;;;;;28.52;16.77;;;;;;;-145.63;100.00;61273.97;5114663;27;20356;-69
2024/03/22 06:11:29;;;;;;;29.17;18.20;;;;;;;-145.63;100.00;61273.97;5116778;27;20043;-65
2024/03/22 06:13:55;;;;;;;29.45;16.80;;;;;;;-145.63;100.00;61273.97;5130058;27;20038;-66
2024/03/22 06:16:20;;;;;;;28.67;16.92;;;;;;;-145.63;100.00;61273.97;5125786;27;20024;-64
2024/03/22 06:18:46;;;;;;;25.13;17.40;;;;;;;-145.63;100.00;61273.97;5119654;27;20034;-65
2024/03/22 06:21:14;;;;;;;29.75;17.40;;;;;;;-145.63;100.00;61273.97;5112419;28;20032;-65
2024/03/22 06:23:41;;;;;;;25.85;16.70;;;;;;;-145.63;100.00;61273.97;5130838;27;20058;-66
2024/03/22 06:26:07;;;;;;;30.27;17.10;;;;;;;-145.63;100.00;61273.97;5128559;27;20031;-64
2024/03/22 06:28:32;;;;;;;28.40;16.52;;;;;;;-145.63;100.00;61273.97;5127687;27;20183;-64
2024/03/22 06:30:58;;;;;;;31.30;18.05;;;;;;;-145.63;100.00;61273.97;5129794;27;20031;-64
2024/03/22 06:33:23;;;;;;;30.98;17.73;;;;;;;-145.63;100.00;61273.97;5126356;27;20046;-65
2024/03/22 06:35:49;;;;;;;30.65;17.15;;;;;;;-145.63;100.00;61273.97;5120485;27;20058;-65
2024/03/22 06:38:15;;;;;;;26.13;16.40;;;;;;;-145.63;100.00;61273.97;5117985;27;20031;-67
2024/03/22 06:40:41;;;;;;;26.33;17.05;;;;;;;-145.63;100.00;61273.97;5122774;27;20399;-67
2024/03/22 06:43:06;;;;;;;27.75;17.08;;;;;;;-145.63;100.00;61273.97;5119694;27;20042;-66
2024/03/22 06:45:32;;;;;;;30.95;17.55;;;;;;;-145.63;100.00;61273.97;5131772;27;20027;-67
2024/03/22 06:47:58;;;;;;;26.60;17.08;;;;;;;-145.63;100.00;61273.97;5106143;28;20043;-67
2024/03/22 06:50:24;;;;;;;34.70;17.85;;;;;;;-145.63;100.00;61273.97;5099165;28;20024;-66
2024/03/22 06:52:54;;;;;;;24.63;17.08;;;;;;;-145.63;100.00;61273.97;5077650;28;20036;-66
2024/03/22 06:55:20;;;;;;;33.25;16.80;;;;;;;-145.63;100.00;61273.97;5118875;27;20024;-65
2024/03/22 06:57:47;;;;;;;33.83;16.80;;;;;;;-145.63;100.00;61273.97;5131327;27;20417;-65
2024/03/22 07:00:14;;;;;;;29.85;17.85;;;;;;;-145.63;100.00;61273.97;5112569;28;20027;-65
2024/03/22 07:02:40;;;;;;;28.35;17.60;;;;;;;-145.63;100.00;61273.97;5136935;27;20033;-64
2024/03/22 07:05:07;;;;;;;25.92;17.27;;;;;;;-145.63;100.00;61273.97;5120763;27;20035;-65
2024/03/22 07:07:33;;;;;;;26.60;17.75;;;;;;;-145.63;100.00;61273.97;5128881;27;20031;-64
2024/03/22 07:09:59;;;;;;;27.05;17.98;;;;;;;-145.63;100.00;61273.97;5084791;27;20054;-64
2024/03/22 07:12:34;;;;;;;24.27;16.02;;;;;;;-145.63;100.00;61273.97;5137310;27;20031;-63
2024/03/22 07:15:01;;;;;;;27.95;16.13;;;;;;;-145.63;100.00;61273.97;5137357;27;20098;-63
2024/03/22 07:17:31;;;;;;;28.73;17.20;;;;;;;-145.63;100.00;61273.97;5130268;27;20080;-65
2024/03/22 07:19:57;;;;;;;25.75;17.50;;;;;;;-145.63;100.00;61273.97;5128615;27;20436;-65
2024/03/22 07:22:23;;;;;;;26.92;16.73;;;;;;;-145.63;100.00;61273.97;5130116;27;20047;-63
2024/03/22 07:24:49;;;;;;;23.60;16.60;;;;;;;-145.63;100.00;61273.97;5116433;27;20036;-64
2024/03/22 07:27:15;;;;;;;33.47;17.92;;;;;;;-145.63;100.00;61273.97;5116203;28;20064;-64
2024/03/22 07:29:41;;;;;;;24.38;16.48;;;;;;;-145.63;100.00;61273.97;5133806;27;20027;-66
2024/03/22 07:32:06;;;;;;;32.55;16.35;;;;;;;-145.63;100.00;61273.97;5122587;27;20042;-63
2024/03/22 07:34:32;;;;;;;29.13;16.83;;;;;;;-145.63;100.00;61273.97;5124214;27;20027;-64
2024/03/22 07:36:58;;;;;;;26.88;16.30;;;;;;;-145.63;100.00;61273.97;5132434;27;20035;-65
2024/03/22 07:39:24;;;;;;;27.27;14.48;;;;;;;-145.63;100.00;61273.97;5118327;27;20455;-65
2024/03/22 07:41:50;;;;;;;24.48;15.00;;;;;;;-145.63;100.00;61273.97;5117817;27;20038;-65
2024/03/22 07:44:17;;;;;;;26.80;14.07;;;;;;;-145.63;100.00;61273.97;5130680;27;20023;-65
2024/03/22 07:46:44;;;;;;;31.52;14.13;;;;;;;-145.63;100.00;61273.97;5127022;27;20464;-64
2024/03/22 07:49:11;;;;;;;25.63;14.25;;;;;;;-145.63;100.00;61273.97;5128523;27;20068;-63
2024/03/22 07:51:37;;;;;;;30.27;14.25;;;;;;;-145.63;100.00;61273.97;5120627;27;20452;-64
2024/03/22 07:54:03;;;;;;;25.45;15.38;;;;;;;-145.63;100.00;61273.97;5136069;27;20050;-64
2024/03/22 07:56:28;;;;;;;27.83;16.08;;;;;;;-145.63;100.00;61273.97;5111524;27;20038;-64
2024/03/22 07:58:55;;;;;;;27.90;15.45;;;;;;;-145.63;100.00;61273.97;5130256;27;20019;-64
2024/03/22 08:01:21;;;;;;;30.40;13.55;;;;;;;-145.63;100.00;61273.97;5120568;27;20110;-65
2024/03/22 08:03:46;;;;;;;21.35;11.43;;;;;;;-145.63;100.00;61273.97;5134734;27;20088;-64
2024/03/22 08:06:12;;;;;;;16.55;10.73;;;;;;;-145.63;100.00;61273.97;5133419;27;20116;-65
2024/03/22 08:08:38;;;;;;;27.80;11.80;;;;;;;-145.63;100.00;61273.97;5115178;27;20058;-65
2024/03/22 08:11:03;;;;;;;27.20;12.95;;;;;;;-145.63;100.00;61273.97;5133771;27;20451;-64
2024/03/22 08:13:29;;;;;;;20.50;12.68;;;;;;;-145.63;100.00;61273.97;5128687;27;20042;-65
2024/03/22 08:15:55;;;;;;;17.42;11.23;;;;;;;-145.63;100.00;61273.97;5133356;27;20400;-63
2024/03/22 08:18:20;;;;;;;21.15;11.10;;;;;;;-145.63;100.00;61273.97;5116540;27;20340;-64
2024/03/22 08:20:46;;;;;;;15.30;9.63;;;;;;;-145.63;100.00;61273.97;5120741;27;20067;-65
2024/03/22 08:23:11;;;;;;;18.92;10.35;;;;;;;-145.63;100.00;61273.97;5123112;27;20040;-65
2024/03/22 08:25:38;;;;;;;16.95;10.30;;;;;;;-145.63;100.00;61273.97;5123768;27;20372;-63
2024/03/22 08:28:04;;;;;;;16.92;10.38;;;;;;;-145.63;100.00;61273.97;5123638;27;20030;-65
2024/03/22 08:30:29;;;;;;;17.42;11.32;;;;;;;-145.63;100.00;61273.97;5133000;27;20023;-64
2024/03/22 08:32:55;;;;;;;21.55;11.95;;;;;;;-145.63;100.00;61273.97;5121161;27;20039;-63
2024/03/22 08:35:21;;;;;;;22.30;11.73;;;;;;;-145.63;100.00;61273.97;5122727;27;20043;-64
2024/03/22 08:37:46;;;;;;;23.60;11.10;;;;;;;-145.63;100.00;61273.97;5125176;27;20099;-63
2024/03/22 08:40:13;;;;;;;18.08;11.60;;;;;;;-145.63;100.00;61273.97;5124174;27;20028;-63
2024/03/22 08:42:39;;;;;;;17.88;11.98;;;;;;;-145.63;100.00;61273.97;5123442;27;20028;-63
2024/03/22 08:45:06;;;;;;;18.45;11.93;;;;;;;-145.63;100.00;61273.97;5126313;27;20031;-62
2024/03/22 08:47:33;;;;;;;25.02;11.82;;;;;;;-145.63;100.00;61273.97;5124016;27;20030;-62
2024/03/22 08:49:59;;;;;;;25.77;12.73;;;;;;;-145.63;100.00;61273.97;5122215;27;20023;-63
2024/03/22 08:52:25;;;;;;;27.83;13.77;;;;;;;-145.63;100.00;61273.97;5127033;27;20074;-63
2024/03/22 08:54:52;;;;;;;24.35;13.77;;;;;;;-145.63;100.00;61273.97;5133946;27;20095;-63
2024/03/22 08:57:18;;;;;;;22.38;14.57;;;;;;;-145.63;100.00;61273.97;5127593;27;20027;-64
2024/03/22 08:59:44;;;;;;;28.40;14.73;;;;;;;-145.63;100.00;61273.97;5134988;27;20486;-64
2024/03/22 09:02:09;;;;;;;25.55;14.18;;;;;;;-145.63;100.00;61273.97;5118251;27;20116;-65
2024/03/22 09:04:35;;;;;;;26.88;15.13;;;;;;;-145.63;100.00;61273.97;5130297;27;20031;-65
2024/03/22 09:07:00;;;;;;;24.25;14.02;;;;;;;-145.63;100.00;61273.97;5108063;27;20103;-64
2024/03/22 09:09:26;;;;;;;22.20;13.07;;;;;;;-145.63;100.00;61273.97;5135069;27;20547;-64
2024/03/22 09:11:52;;;;;;;25.25;13.57;;;;;;;-145.63;100.00;61273.97;5116676;27;20028;-63
2024/03/22 09:14:18;;;;;;;21.55;12.85;;;;;;;-145.63;100.00;61273.97;5115346;27;20024;-64
2024/03/22 09:16:43;;;;;;;24.95;14.10;;;;;;;-145.63;100.00;61273.97;5123984;27;20490;-63
2024/03/22 09:19:10;;;;;;;20.80;12.52;;;;;;;-145.63;100.00;61273.97;5124996;27;20028;-64
2024/03/22 09:21:36;;;;;;;26.90;15.70;;;;;;;-145.63;100.00;61273.97;5123171;27;20032;-64
2024/03/22 09:24:05;;;;;;;29.10;15.32;;;;;;;-145.63;100.00;61273.97;5126827;27;20070;-64
2024/03/22 09:26:32;;;;;;;23.45;14.48;;;;;;;-145.63;100.00;61273.97;5124971;27;20043;-64
2024/03/22 09:28:58;;;;;;;31.13;17.00;;;;;;;-145.63;100.00;61273.97;5126553;27;20062;-66
2024/03/22 09:31:23;;;;;;;29.05;17.42;;;;;;;-145.63;100.00;61273.97;5101028;28;20448;-64
2024/03/22 09:33:49;;;;;;;25.33;17.15;;;;;;;-145.63;100.00;61273.97;5126183;27;20038;-64
2024/03/22 09:36:14;;;;;;;32.00;16.15;;;;;;;-145.63;100.00;61273.97;5130374;27;20419;-63
2024/03/22 09:38:41;;;;;;;29.83;15.57;;;;;;;-145.63;100.00;61273.97;5134413;27;20471;-65
2024/03/22 09:41:06;;;;;;;28.58;16.33;;;;;;;-145.63;100.00;61273.97;5107786;27;20383;-64
2024/03/22 09:43:34;;;;;;;26.38;15.75;;;;;;;-145.63;100.00;61273.97;5123751;27;20031;-64
2024/03/22 09:46:00;;;;;;;22.02;14.10;;;;;;;-145.63;100.00;61273.97;5127760;27;20085;-67
2024/03/22 09:48:28;;;;;;;24.50;15.45;;;;;;;-145.63;100.00;61273.97;5126359;27;20097;-66
2024/03/22 09:50:55;;;;;;;29.40;14.88;;;;;;;-145.63;100.00;61273.97;5108290;27;20030;-65
2024/03/22 09:53:22;;;;;;;30.75;15.90;;;;;;;-145.63;100.00;61273.97;5123778;27;20072;-65
2024/03/22 09:55:49;;;;;;;30.00;16.80;;;;;;;-145.63;100.00;61273.97;5119131;27;20168;-64
2024/03/22 09:58:19;;;;;;;24.52;15.32;;;;;;;-145.63;100.00;61273.97;5127073;27;20062;-66
2024/03/22 10:00:44;;;;;;;29.75;15.38;;;;;;;-145.63;100.00;61273.97;5123534;27;20395;-65
2024/03/22 10:03:14;;;;;;;25.27;14.93;;;;;;;-145.63;100.00;61273.97;5107003;27;20035;-64
2024/03/22 10:05:39;;;;;;;24.15;15.38;;;;;;;-145.63;100.00;61273.97;5088585;28;20031;-63
2024/03/22 10:08:05;;;;;;;29.58;14.98;;;;;;;-145.63;100.00;61273.97;5107446;27;20471;-63
2024/03/22 10:10:32;;;;;;;25.25;13.73;;;;;;;-145.63;100.00;61273.97;5124112;27;20106;-63
2024/03/22 10:13:00;;;;;;;24.70;13.38;;;;;;;-145.63;100.00;61273.97;5121488;27;20035;-64
2024/03/22 10:15:26;;;;;;;25.38;13.05;;;;;;;-145.63;100.00;61273.97;5132830;27;20027;-64
2024/03/22 10:17:55;;;;;;;23.85;12.88;;;;;;;-145.63;100.00;61273.97;5116304;27;20433;-63
2024/03/22 10:20:20;;;;;;;20.15;12.65;;;;;;;-145.63;100.00;61273.97;5126707;27;20027;-64
2024/03/22 10:22:55;;;;;;;24.00;12.70;;;;;;;-145.63;100.00;61273.97;5125204;27;20040;-63
2024/03/22 10:25:23;;;;;;;21.63;13.55;;;;;;;-145.63;100.00;61273.97;5116035;27;20043;-64
2024/03/22 10:27:48;;;;;;;26.52;13.55;;;;;;;-145.63;100.00;61273.97;5133766;27;20391;-63
2024/03/22 10:30:16;;;;;;;23.83;13.45;;;;;;;-145.63;100.00;61273.97;5129868;27;20032;-63
2024/03/22 10:32:42;;;;;;;26.83;13.85;;;;;;;-145.63;100.00;61273.97;5129118;27;20413;-63
2024/03/22 10:35:11;;;;;;;23.50;12.35;;;;;;;-145.63;100.00;61273.97;5133476;27;20031;-63
2024/03/22 10:37:37;;;;;;;20.52;12.50;;;;;;;-145.63;100.00;61273.97;5133139;27;20429;-63
2024/03/22 10:40:07;;;;;;;25.33;12.00;;;;;;;-145.63;100.00;61273.97;5130465;27;20031;-63
2024/03/22 10:42:39;;;;;;;21.88;11.35;;;;;;;-145.63;100.00;61273.97;5112690;28;20027;-64
2024/03/22 10:45:07;;;;;;;21.13;12.23;;;;;;;-145.63;100.00;61273.97;5112858;28;20114;-63
2024/03/22 10:47:34;;;;;;;22.35;13.30;;;;;;;-145.63;100.00;61273.97;5122282;27;20027;-64
2024/03/22 10:50:08;;;;;;;25.08;13.60;;;;;;;-145.63;100.00;61273.97;5130782;27;20034;-67